KMYL

Mc Call Municipal Airport

Mc Call, Idaho, USA
METAR KMYL 171851Z AUTO 00000KT 10SM CLR 13/00 A3032 RMK AO2 SLP266 T01280000
Observed Flight Rules
Oct-17 @ 18:51 UTC (12 minutes ago) Visual Flight Rules
Visibility Clouds
10 miles
  • Clear skies
Temperatures Readings
Current 13°C / 55°F
Dewpoint 0°C / 32°F
Humidity 41%
Altimeter 30.32" Hg
Pressure 1026.6 hPa
Elevation 1533
METAR KMYL 171851Z AUTO 00000KT 10SM CLR 13/00 A3032 RMK AO2 SLP266 T01280000
Observed Flight Rules
Oct-17 @ 18:51 UTC
(12 minutes ago)
VFR
Clouds
  • Clear skies
Temperature Dewpoint
13°C / 55°F 0°C / 32°F
Humidity Altimeter Pressure
41% 30.32" Hg 1026.6 hPa